Port Jefferson Station, NY (11776)

6:14 AM EST on March 02, 2015 (GMT -0500)
Selden, NY | Change Station
CLOSE
Current Station
Personal Weather Station
Location: Selden, NY
Elevation: 128 ft
Nearby Weather Stations

Elev 128 ft 40.89 °N, 73.04 °W | Updated 2 minutes ago

Overcast
Overcast
27.1 °F
Feels Like 27 °F
N
0.0
Wind Variable Wind from WSW

Today
High -- | Low -- °F
--% Chance of Precip.
Yesterday
High -- | Low -- °F
Precip. -- in
6:25 AM 5:44 PM
Waxing Gibbous, 91% visible
Pressure 30.00 in
Visibility 5.0 miles
Clouds Few 700 ft
Overcast 7000 ft
Windchill 27 °F
Dew Point 26 °F
Humidity 95%
Rainfall 0.00 in
Snow Depth Not available.
UV 0 out of 12
Pollen .40 out of 12
Air Quality Not available.
Flu Activity Not available.
METAR KISP 021056Z 26004KT 5SM BR FEW007 OVC070 M02/M03 A3000 RMK AO2 SLP159 FIRST AUGMENTED OBSERVATION T10171033

More Conditions Fewer Conditions

Pressure 30.00 in
Visibility 5.0 miles
Clouds Few 700 ft
Overcast 7000 ft
Windchill 27 °F
Dew Point 26 °F
Humidity 95%
Rainfall 0.00 in
Snow Depth Not available.
UV 0 out of 12
Pollen .40 out of 12
Air Quality Not available.
Flu Activity Not available.
METAR KISP 021056Z 26004KT 5SM BR FEW007 OVC070 M02/M03 A3000 RMK AO2 SLP159 FIRST AUGMENTED OBSERVATION T10171033

More Conditions Fewer Conditions

10-Day Weather Forecast

Almanac

Astronomy

Mar. 02, 2015 Rise Set
Actual Time
Civil Twilight
Nautical Twilight
Astronomical Twilight
Moon
Length of Visible Light
Length of Day
Tomorrow will be .
, % of the Moon is Illuminated

Today's Extremes

State Highs State Lows

Community

WunderPhotos

Upload Photos

1,801,756 photos uploaded!

WunderBlogs® & News

Nearby

Air Quality

  Air Quality AQ Index Pollutant
Not available.

Snow Depth

Station Depth Elevation

Earthquake Activity

City Distance Mag. Time & Date
Minimum magnitude displayed is 2.5.

Coastal Water Temperatures

Place Temperature

Nearby Weather Stations